sensor_id;sensor_type;location;lat;lon;timestamp;noise_LAeq;noise_LA_min;noise_LA_max;noise_LA01;noise_LA95
76338;Laerm;20358;50.272;19.026;2023-12-20T00:02:49;46.70;40.40;59.51;;
76338;Laerm;20358;50.272;19.026;2023-12-20T00:05:55;50.45;39.32;68.01;;
76338;Laerm;20358;50.272;19.026;2023-12-20T00:09:08;48.81;39.80;63.14;;
76338;Laerm;20358;50.272;19.026;2023-12-20T00:12:13;47.08;38.95;68.51;;
76338;Laerm;20358;50.272;19.026;2023-12-20T00:15:20;47.80;38.06;66.36;;
76338;Laerm;20358;50.272;19.026;2023-12-20T00:18:26;44.52;36.57;65.15;;
76338;Laerm;20358;50.272;19.026;2023-12-20T00:21:33;50.05;37.51;62.31;;
76338;Laerm;20358;50.272;19.026;2023-12-20T00:24:41;43.11;36.87;54.81;;
76338;Laerm;20358;50.272;19.026;2023-12-20T00:27:48;45.49;37.64;59.07;;
76338;Laerm;20358;50.272;19.026;2023-12-20T00:30:54;49.18;37.96;60.68;;
76338;Laerm;20358;50.272;19.026;2023-12-20T00:34:01;44.53;35.81;60.25;;
76338;Laerm;20358;50.272;19.026;2023-12-20T00:37:07;55.92;37.86;78.80;;
76338;Laerm;20358;50.272;19.026;2023-12-20T00:40:17;47.08;36.27;70.96;;
76338;Laerm;20358;50.272;19.026;2023-12-20T00:43:23;45.23;36.08;65.80;;
76338;Laerm;20358;50.272;19.026;2023-12-20T00:46:30;46.52;35.83;66.33;;
76338;Laerm;20358;50.272;19.026;2023-12-20T00:49:36;42.62;36.84;58.72;;
76338;Laerm;20358;50.272;19.026;2023-12-20T00:52:43;41.53;36.00;57.98;;
76338;Laerm;20358;50.272;19.026;2023-12-20T00:55:51;48.87;36.58;65.78;;
76338;Laerm;20358;50.272;19.026;2023-12-20T00:58:58;43.71;35.92;61.27;;
76338;Laerm;20358;50.272;19.026;2023-12-20T01:02:05;49.46;36.67;63.34;;
76338;Laerm;20358;50.272;19.026;2023-12-20T01:05:13;48.97;39.01;64.87;;
76338;Laerm;20358;50.272;19.026;2023-12-20T01:08:19;43.07;35.51;59.13;;
76338;Laerm;20358;50.272;19.026;2023-12-20T01:11:28;43.14;35.51;60.12;;
76338;Laerm;20358;50.272;19.026;2023-12-20T01:14:34;44.46;36.03;57.69;;
76338;Laerm;20358;50.272;19.026;2023-12-20T01:17:43;46.05;36.81;64.60;;
76338;Laerm;20358;50.272;19.026;2023-12-20T01:20:49;44.50;36.10;65.04;;
76338;Laerm;20358;50.272;19.026;2023-12-20T01:23:56;42.75;36.11;60.22;;
76338;Laerm;20358;50.272;19.026;2023-12-20T01:27:07;44.94;35.03;66.46;;
76338;Laerm;20358;50.272;19.026;2023-12-20T01:30:14;50.24;37.50;67.77;;
76338;Laerm;20358;50.272;19.026;2023-12-20T01:33:20;46.62;36.81;60.47;;
76338;Laerm;20358;50.272;19.026;2023-12-20T01:36:28;42.01;34.69;58.02;;
76338;Laerm;20358;50.272;19.026;2023-12-20T01:39:34;43.27;35.32;60.51;;
76338;Laerm;20358;50.272;19.026;2023-12-20T01:42:44;44.78;37.20;58.60;;
76338;Laerm;20358;50.272;19.026;2023-12-20T01:45:51;48.82;36.57;71.31;;
76338;Laerm;20358;50.272;19.026;2023-12-20T01:48:58;42.17;35.97;59.37;;
76338;Laerm;20358;50.272;19.026;2023-12-20T01:52:06;43.41;35.17;67.96;;
76338;Laerm;20358;50.272;19.026;2023-12-20T01:55:15;48.15;35.86;69.28;;
76338;Laerm;20358;50.272;19.026;2023-12-20T01:58:26;42.80;36.18;65.89;;
76338;Laerm;20358;50.272;19.026;2023-12-20T02:01:33;50.75;35.33;77.57;;
76338;Laerm;20358;50.272;19.026;2023-12-20T02:04:40;53.54;35.48;77.05;;
76338;Laerm;20358;50.272;19.026;2023-12-20T02:07:47;47.57;35.34;69.72;;
76338;Laerm;20358;50.272;19.026;2023-12-20T02:10:54;46.06;35.92;65.19;;
76338;Laerm;20358;50.272;19.026;2023-12-20T02:14:06;49.09;35.48;69.56;;
76338;Laerm;20358;50.272;19.026;2023-12-20T02:17:13;50.53;35.24;70.72;;
76338;Laerm;20358;50.272;19.026;2023-12-20T02:20:19;50.15;35.20;74.62;;
76338;Laerm;20358;50.272;19.026;2023-12-20T02:23:29;51.63;35.68;74.81;;
76338;Laerm;20358;50.272;19.026;2023-12-20T02:26:35;45.94;36.50;63.40;;
76338;Laerm;20358;50.272;19.026;2023-12-20T02:29:41;46.29;35.78;67.98;;
76338;Laerm;20358;50.272;19.026;2023-12-20T02:32:50;56.14;38.57;81.91;;
76338;Laerm;20358;50.272;19.026;2023-12-20T02:35:57;50.90;37.47;72.06;;
76338;Laerm;20358;50.272;19.026;2023-12-20T02:39:07;53.20;35.26;80.67;;
76338;Laerm;20358;50.272;19.026;2023-12-20T02:42:15;53.92;37.18;76.80;;
76338;Laerm;20358;50.272;19.026;2023-12-20T02:45:21;49.93;35.88;69.63;;
76338;Laerm;20358;50.272;19.026;2023-12-20T02:48:29;49.85;36.41;70.20;;
76338;Laerm;20358;50.272;19.026;2023-12-20T02:51:35;42.51;35.19;58.88;;
76338;Laerm;20358;50.272;19.026;2023-12-20T02:54:45;44.73;35.36;58.73;;
76338;Laerm;20358;50.272;19.026;2023-12-20T02:57:51;53.41;37.45;75.98;;
76338;Laerm;20358;50.272;19.026;2023-12-20T03:00:57;53.15;36.47;76.09;;
76338;Laerm;20358;50.272;19.026;2023-12-20T03:04:05;52.91;39.63;76.89;;
76338;Laerm;20358;50.272;19.026;2023-12-20T03:07:12;53.88;43.66;75.43;;
76338;Laerm;20358;50.272;19.026;2023-12-20T03:10:21;53.71;41.97;77.24;;
76338;Laerm;20358;50.272;19.026;2023-12-20T03:13:30;49.92;37.85;68.13;;
76338;Laerm;20358;50.272;19.026;2023-12-20T03:16:35;49.42;37.86;69.66;;
76338;Laerm;20358;50.272;19.026;2023-12-20T03:19:42;50.70;39.88;70.96;;
76338;Laerm;20358;50.272;19.026;2023-12-20T03:22:48;48.13;41.02;66.95;;
76338;Laerm;20358;50.272;19.026;2023-12-20T03:25:57;51.98;40.49;75.37;;
76338;Laerm;20358;50.272;19.026;2023-12-20T03:29:05;49.32;38.97;68.21;;
76338;Laerm;20358;50.272;19.026;2023-12-20T03:32:12;47.09;40.09;66.84;;
76338;Laerm;20358;50.272;19.026;2023-12-20T03:35:18;48.85;41.39;71.55;;
76338;Laerm;20358;50.272;19.026;2023-12-20T03:38:25;49.86;40.95;67.64;;
76338;Laerm;20358;50.272;19.026;2023-12-20T03:41:33;48.96;42.14;67.58;;
76338;Laerm;20358;50.272;19.026;2023-12-20T03:44:41;51.56;42.93;75.73;;
76338;Laerm;20358;50.272;19.026;2023-12-20T03:47:47;53.57;42.23;72.35;;
76338;Laerm;20358;50.272;19.026;2023-12-20T03:50:58;50.42;41.18;71.15;;
76338;Laerm;20358;50.272;19.026;2023-12-20T03:54:04;52.42;42.97;72.83;;
76338;Laerm;20358;50.272;19.026;2023-12-20T03:57:14;49.95;40.80;69.79;;
76338;Laerm;20358;50.272;19.026;2023-12-20T04:00:20;49.09;41.36;67.50;;
76338;Laerm;20358;50.272;19.026;2023-12-20T04:03:26;50.23;42.23;68.13;;
76338;Laerm;20358;50.272;19.026;2023-12-20T04:06:32;49.98;42.88;69.08;;
76338;Laerm;20358;50.272;19.026;2023-12-20T04:09:41;49.87;42.07;68.33;;
76338;Laerm;20358;50.272;19.026;2023-12-20T04:12:49;52.75;42.75;69.90;;
76338;Laerm;20358;50.272;19.026;2023-12-20T04:15:56;51.09;42.34;69.19;;
76338;Laerm;20358;50.272;19.026;2023-12-20T04:19:03;50.90;43.29;68.65;;
76338;Laerm;20358;50.272;19.026;2023-12-20T04:22:10;50.56;42.52;67.91;;
76338;Laerm;20358;50.272;19.026;2023-12-20T04:25:16;52.57;43.14;68.50;;
76338;Laerm;20358;50.272;19.026;2023-12-20T04:28:26;52.78;42.94;70.55;;
76338;Laerm;20358;50.272;19.026;2023-12-20T04:31:33;53.09;42.90;68.48;;
76338;Laerm;20358;50.272;19.026;2023-12-20T04:34:40;52.09;44.28;70.12;;
76338;Laerm;20358;50.272;19.026;2023-12-20T04:37:46;53.19;44.95;68.23;;
76338;Laerm;20358;50.272;19.026;2023-12-20T04:40:53;53.23;44.79;68.86;;
76338;Laerm;20358;50.272;19.026;2023-12-20T04:44:02;52.66;44.92;69.09;;
76338;Laerm;20358;50.272;19.026;2023-12-20T04:47:08;52.47;44.69;78.87;;
76338;Laerm;20358;50.272;19.026;2023-12-20T04:50:15;54.39;45.87;78.37;;
76338;Laerm;20358;50.272;19.026;2023-12-20T04:53:21;52.42;44.02;69.44;;
76338;Laerm;20358;50.272;19.026;2023-12-20T04:56:27;53.51;45.36;68.44;;
76338;Laerm;20358;50.272;19.026;2023-12-20T04:59:36;54.89;46.34;69.79;;
76338;Laerm;20358;50.272;19.026;2023-12-20T05:02:42;53.72;45.74;70.02;;
76338;Laerm;20358;50.272;19.026;2023-12-20T05:05:49;52.60;45.81;71.01;;
76338;Laerm;20358;50.272;19.026;2023-12-20T05:08:55;53.75;46.68;67.39;;
76338;Laerm;20358;50.272;19.026;2023-12-20T05:12:04;53.68;45.42;69.13;;
76338;Laerm;20358;50.272;19.026;2023-12-20T05:15:12;54.80;44.93;69.87;;
76338;Laerm;20358;50.272;19.026;2023-12-20T05:18:20;54.18;45.65;68.19;;
76338;Laerm;20358;50.272;19.026;2023-12-20T05:21:26;53.50;46.53;69.12;;
76338;Laerm;20358;50.272;19.026;2023-12-20T05:24:35;53.19;45.93;69.10;;
76338;Laerm;20358;50.272;19.026;2023-12-20T05:27:40;54.63;46.30;71.04;;
76338;Laerm;20358;50.272;19.026;2023-12-20T05:30:50;55.79;48.07;74.31;;
76338;Laerm;20358;50.272;19.026;2023-12-20T05:33:56;53.93;47.27;68.18;;
76338;Laerm;20358;50.272;19.026;2023-12-20T05:37:04;52.50;45.67;69.09;;
76338;Laerm;20358;50.272;19.026;2023-12-20T05:40:11;53.52;48.04;66.43;;
76338;Laerm;20358;50.272;19.026;2023-12-20T05:43:18;55.65;47.74;72.50;;
76338;Laerm;20358;50.272;19.026;2023-12-20T05:46:28;54.55;48.21;71.67;;
76338;Laerm;20358;50.272;19.026;2023-12-20T05:49:34;53.45;47.73;69.01;;
76338;Laerm;20358;50.272;19.026;2023-12-20T05:52:40;53.47;46.73;69.83;;
76338;Laerm;20358;50.272;19.026;2023-12-20T05:55:47;53.80;45.28;70.71;;
76338;Laerm;20358;50.272;19.026;2023-12-20T05:58:53;55.07;47.02;70.41;;
76338;Laerm;20358;50.272;19.026;2023-12-20T06:02:04;55.55;45.87;70.66;;
76338;Laerm;20358;50.272;19.026;2023-12-20T06:05:10;56.58;48.48;70.64;;
76338;Laerm;20358;50.272;19.026;2023-12-20T06:08:18;53.56;44.51;69.86;;
76338;Laerm;20358;50.272;19.026;2023-12-20T06:11:25;53.58;46.84;71.65;;
76338;Laerm;20358;50.272;19.026;2023-12-20T06:14:32;52.56;45.20;69.43;;
76338;Laerm;20358;50.272;19.026;2023-12-20T06:17:41;56.03;47.04;71.04;;
76338;Laerm;20358;50.272;19.026;2023-12-20T06:20:48;53.49;47.13;68.10;;
76338;Laerm;20358;50.272;19.026;2023-12-20T06:23:54;54.29;49.30;67.94;;
76338;Laerm;20358;50.272;19.026;2023-12-20T06:27:03;57.00;49.38;73.24;;
76338;Laerm;20358;50.272;19.026;2023-12-20T06:30:10;55.99;49.31;74.58;;
76338;Laerm;20358;50.272;19.026;2023-12-20T06:33:20;54.56;49.66;70.23;;
76338;Laerm;20358;50.272;19.026;2023-12-20T06:36:26;53.82;47.69;78.80;;
76338;Laerm;20358;50.272;19.026;2023-12-20T06:39:33;54.78;47.08;73.54;;
76338;Laerm;20358;50.272;19.026;2023-12-20T06:42:39;56.02;49.42;71.40;;
76338;Laerm;20358;50.272;19.026;2023-12-20T06:46:01;57.25;49.59;72.64;;
76338;Laerm;20358;50.272;19.026;2023-12-20T06:49:10;56.36;48.17;70.18;;
76338;Laerm;20358;50.272;19.026;2023-12-20T06:52:16;56.49;48.02;70.89;;
76338;Laerm;20358;50.272;19.026;2023-12-20T06:55:22;64.83;50.26;83.16;;
76338;Laerm;20358;50.272;19.026;2023-12-20T06:58:29;55.43;49.01;79.74;;
76338;Laerm;20358;50.272;19.026;2023-12-20T07:01:35;55.69;48.65;67.83;;
76338;Laerm;20358;50.272;19.026;2023-12-20T07:04:45;55.78;49.71;71.46;;
76338;Laerm;20358;50.272;19.026;2023-12-20T07:07:51;55.24;49.72;68.88;;
76338;Laerm;20358;50.272;19.026;2023-12-20T07:10:58;54.71;49.14;71.42;;
76338;Laerm;20358;50.272;19.026;2023-12-20T07:14:04;57.77;48.80;70.79;;
76338;Laerm;20358;50.272;19.026;2023-12-20T07:17:11;55.22;48.44;69.55;;
76338;Laerm;20358;50.272;19.026;2023-12-20T07:20:20;56.17;48.22;69.13;;
76338;Laerm;20358;50.272;19.026;2023-12-20T07:23:27;54.94;49.12;68.79;;
76338;Laerm;20358;50.272;19.026;2023-12-20T07:26:35;55.60;49.70;74.39;;
76338;Laerm;20358;50.272;19.026;2023-12-20T07:29:43;55.52;48.66;71.85;;
76338;Laerm;20358;50.272;19.026;2023-12-20T07:32:49;55.69;47.93;69.11;;
76338;Laerm;20358;50.272;19.026;2023-12-20T07:35:59;54.95;47.80;67.66;;
76338;Laerm;20358;50.272;19.026;2023-12-20T07:39:06;55.08;49.04;72.94;;
76338;Laerm;20358;50.272;19.026;2023-12-20T07:42:12;55.44;47.22;71.17;;
76338;Laerm;20358;50.272;19.026;2023-12-20T07:45:18;55.37;48.45;73.00;;
76338;Laerm;20358;50.272;19.026;2023-12-20T07:48:25;55.55;48.40;73.53;;
76338;Laerm;20358;50.272;19.026;2023-12-20T07:51:33;54.90;47.62;68.60;;
76338;Laerm;20358;50.272;19.026;2023-12-20T07:54:41;56.51;49.19;70.60;;
76338;Laerm;20358;50.272;19.026;2023-12-20T07:57:46;55.07;47.37;70.61;;
76338;Laerm;20358;50.272;19.026;2023-12-20T08:00:53;54.59;48.13;69.65;;
76338;Laerm;20358;50.272;19.026;2023-12-20T08:03:59;55.20;46.95;73.80;;
76338;Laerm;20358;50.272;19.026;2023-12-20T08:07:09;54.78;47.87;70.93;;
76338;Laerm;20358;50.272;19.026;2023-12-20T08:10:15;56.06;49.02;69.12;;
76338;Laerm;20358;50.272;19.026;2023-12-20T08:13:23;54.48;46.68;69.03;;
76338;Laerm;20358;50.272;19.026;2023-12-20T08:16:29;54.00;46.83;68.40;;
76338;Laerm;20358;50.272;19.026;2023-12-20T08:19:36;54.20;47.86;69.42;;
76338;Laerm;20358;50.272;19.026;2023-12-20T08:22:45;55.23;47.86;69.95;;
76338;Laerm;20358;50.272;19.026;2023-12-20T08:25:51;54.68;47.39;69.44;;
76338;Laerm;20358;50.272;19.026;2023-12-20T08:28:57;54.98;48.54;73.91;;
76338;Laerm;20358;50.272;19.026;2023-12-20T08:32:05;55.63;46.81;78.52;;
76338;Laerm;20358;50.272;19.026;2023-12-20T08:35:11;53.69;48.03;68.95;;
76338;Laerm;20358;50.272;19.026;2023-12-20T08:38:21;53.67;48.47;69.60;;
76338;Laerm;20358;50.272;19.026;2023-12-20T08:41:26;55.36;48.13;72.28;;
76338;Laerm;20358;50.272;19.026;2023-12-20T08:44:33;54.66;46.46;72.16;;
76338;Laerm;20358;50.272;19.026;2023-12-20T08:47:40;57.20;46.49;77.86;;
76338;Laerm;20358;50.272;19.026;2023-12-20T08:50:49;53.84;45.10;71.39;;
76338;Laerm;20358;50.272;19.026;2023-12-20T08:53:58;55.56;44.05;73.24;;
76338;Laerm;20358;50.272;19.026;2023-12-20T08:57:05;54.05;44.95;70.94;;
76338;Laerm;20358;50.272;19.026;2023-12-20T09:00:13;54.74;48.43;69.57;;
76338;Laerm;20358;50.272;19.026;2023-12-20T09:03:20;53.81;45.98;69.66;;
76338;Laerm;20358;50.272;19.026;2023-12-20T09:06:26;54.99;45.74;72.07;;
76338;Laerm;20358;50.272;19.026;2023-12-20T09:09:36;54.06;46.40;80.26;;
76338;Laerm;20358;50.272;19.026;2023-12-20T09:12:42;55.85;46.99;77.34;;
76338;Laerm;20358;50.272;19.026;2023-12-20T09:15:51;53.91;45.81;68.46;;
76338;Laerm;20358;50.272;19.026;2023-12-20T09:18:57;53.77;44.84;66.30;;
76338;Laerm;20358;50.272;19.026;2023-12-20T09:22:05;53.50;45.84;67.99;;
76338;Laerm;20358;50.272;19.026;2023-12-20T09:25:14;55.12;44.57;69.83;;
76338;Laerm;20358;50.272;19.026;2023-12-20T09:28:21;53.21;46.08;68.49;;
76338;Laerm;20358;50.272;19.026;2023-12-20T09:31:27;55.53;45.68;70.70;;
76338;Laerm;20358;50.272;19.026;2023-12-20T09:34:34;58.05;47.27;76.99;;
76338;Laerm;20358;50.272;19.026;2023-12-20T09:37:40;52.76;45.96;71.15;;
76338;Laerm;20358;50.272;19.026;2023-12-20T09:40:52;54.58;45.45;68.27;;
76338;Laerm;20358;50.272;19.026;2023-12-20T09:44:03;53.12;46.54;69.33;;
76338;Laerm;20358;50.272;19.026;2023-12-20T09:47:11;54.42;46.76;71.43;;
76338;Laerm;20358;50.272;19.026;2023-12-20T09:50:19;55.10;47.47;75.63;;
76338;Laerm;20358;50.272;19.026;2023-12-20T09:53:28;55.12;48.98;68.02;;
76338;Laerm;20358;50.272;19.026;2023-12-20T09:56:37;54.97;47.78;72.27;;
76338;Laerm;20358;50.272;19.026;2023-12-20T09:59:46;53.94;48.54;69.14;;
76338;Laerm;20358;50.272;19.026;2023-12-20T10:02:58;54.20;47.10;68.90;;
76338;Laerm;20358;50.272;19.026;2023-12-20T10:06:05;55.44;45.55;70.04;;
76338;Laerm;20358;50.272;19.026;2023-12-20T10:09:12;55.25;45.58;72.03;;
76338;Laerm;20358;50.272;19.026;2023-12-20T10:12:22;56.34;49.62;69.16;;
76338;Laerm;20358;50.272;19.026;2023-12-20T10:15:27;54.63;46.11;71.47;;
76338;Laerm;20358;50.272;19.026;2023-12-20T10:18:34;57.20;47.74;77.18;;
76338;Laerm;20358;50.272;19.026;2023-12-20T10:21:43;55.94;50.04;73.60;;
76338;Laerm;20358;50.272;19.026;2023-12-20T10:24:50;55.95;48.29;71.03;;
76338;Laerm;20358;50.272;19.026;2023-12-20T10:28:15;55.96;49.54;72.10;;
76338;Laerm;20358;50.272;19.026;2023-12-20T10:31:28;56.51;46.57;78.82;;
76338;Laerm;20358;50.272;19.026;2023-12-20T10:34:34;55.86;47.82;69.40;;
76338;Laerm;20358;50.272;19.026;2023-12-20T10:37:42;56.72;48.75;76.59;;
76338;Laerm;20358;50.272;19.026;2023-12-20T10:40:49;56.94;48.72;77.95;;
76338;Laerm;20358;50.272;19.026;2023-12-20T10:44:04;57.81;48.30;79.11;;
76338;Laerm;20358;50.272;19.026;2023-12-20T10:47:13;57.74;48.33;79.36;;
76338;Laerm;20358;50.272;19.026;2023-12-20T10:50:20;56.13;50.08;72.57;;
76338;Laerm;20358;50.272;19.026;2023-12-20T10:53:26;59.28;50.11;79.02;;
76338;Laerm;20358;50.272;19.026;2023-12-20T10:56:33;58.94;48.78;83.68;;
76338;Laerm;20358;50.272;19.026;2023-12-20T10:59:45;61.12;50.10;85.93;;
76338;Laerm;20358;50.272;19.026;2023-12-20T11:03:00;60.07;49.83;82.02;;
76338;Laerm;20358;50.272;19.026;2023-12-20T11:06:27;57.72;49.70;76.13;;
76338;Laerm;20358;50.272;19.026;2023-12-20T11:09:45;64.31;49.36;79.04;;
76338;Laerm;20358;50.272;19.026;2023-12-20T11:13:05;59.05;48.27;84.60;;
76338;Laerm;20358;50.272;19.026;2023-12-20T11:16:19;55.35;47.34;72.40;;
76338;Laerm;20358;50.272;19.026;2023-12-20T11:19:28;58.51;48.09;79.81;;
76338;Laerm;20358;50.272;19.026;2023-12-20T11:22:35;55.98;49.67;72.79;;
76338;Laerm;20358;50.272;19.026;2023-12-20T11:25:51;54.91;47.24;68.53;;
76338;Laerm;20358;50.272;19.026;2023-12-20T11:29:30;56.06;46.47;72.18;;
76338;Laerm;20358;50.272;19.026;2023-12-20T11:32:40;54.34;47.06;71.36;;
76338;Laerm;20358;50.272;19.026;2023-12-20T11:35:47;55.77;48.09;72.99;;
76338;Laerm;20358;50.272;19.026;2023-12-20T11:38:57;55.41;49.41;69.99;;
76338;Laerm;20358;50.272;19.026;2023-12-20T11:42:07;58.84;49.19;79.70;;
76338;Laerm;20358;50.272;19.026;2023-12-20T11:45:15;57.75;48.54;77.96;;
76338;Laerm;20358;50.272;19.026;2023-12-20T11:48:26;55.96;45.14;75.53;;
76338;Laerm;20358;50.272;19.026;2023-12-20T11:51:32;61.94;46.08;77.99;;
76338;Laerm;20358;50.272;19.026;2023-12-20T11:54:39;59.28;47.88;78.81;;
76338;Laerm;20358;50.272;19.026;2023-12-20T11:57:45;59.09;49.51;87.54;;
76338;Laerm;20358;50.272;19.026;2023-12-20T12:00:52;56.59;46.59;73.54;;
76338;Laerm;20358;50.272;19.026;2023-12-20T12:04:07;56.69;47.85;75.62;;
76338;Laerm;20358;50.272;19.026;2023-12-20T12:07:14;58.24;48.52;76.62;;
76338;Laerm;20358;50.272;19.026;2023-12-20T12:10:20;60.13;48.31;83.58;;
76338;Laerm;20358;50.272;19.026;2023-12-20T12:13:28;57.18;48.40;79.36;;
76338;Laerm;20358;50.272;19.026;2023-12-20T12:16:34;59.41;47.72;79.69;;
76338;Laerm;20358;50.272;19.026;2023-12-20T12:19:44;57.54;48.13;79.57;;
76338;Laerm;20358;50.272;19.026;2023-12-20T12:22:58;56.06;48.23;72.83;;
76338;Laerm;20358;50.272;19.026;2023-12-20T12:26:06;56.62;46.54;76.02;;
76338;Laerm;20358;50.272;19.026;2023-12-20T12:29:12;57.80;49.28;80.60;;
76338;Laerm;20358;50.272;19.026;2023-12-20T12:32:19;54.60;47.39;74.75;;
76338;Laerm;20358;50.272;19.026;2023-12-20T12:35:28;54.19;44.90;71.04;;
76338;Laerm;20358;50.272;19.026;2023-12-20T12:38:35;53.87;44.04;68.13;;
76338;Laerm;20358;50.272;19.026;2023-12-20T12:41:41;53.33;45.91;65.64;;
76338;Laerm;20358;50.272;19.026;2023-12-20T12:44:48;55.33;45.17;67.24;;
76338;Laerm;20358;50.272;19.026;2023-12-20T12:47:54;55.04;47.03;67.62;;
76338;Laerm;20358;50.272;19.026;2023-12-20T12:51:04;53.03;44.72;62.48;;
76338;Laerm;20358;50.272;19.026;2023-12-20T12:54:15;52.15;45.06;60.17;;
76338;Laerm;20358;50.272;19.026;2023-12-20T12:57:22;54.52;46.76;69.33;;
76338;Laerm;20358;50.272;19.026;2023-12-20T13:00:28;54.64;45.43;67.06;;
76338;Laerm;20358;50.272;19.026;2023-12-20T13:03:37;53.24;46.69;63.02;;
76338;Laerm;20358;50.272;19.026;2023-12-20T13:06:45;53.59;47.14;62.53;;
76338;Laerm;20358;50.272;19.026;2023-12-20T13:09:52;54.16;46.39;63.43;;
76338;Laerm;20358;50.272;19.026;2023-12-20T13:12:58;54.54;45.02;74.14;;
76338;Laerm;20358;50.272;19.026;2023-12-20T13:16:06;54.23;45.74;77.65;;
76338;Laerm;20358;50.272;19.026;2023-12-20T13:19:12;54.31;46.13;68.21;;
76338;Laerm;20358;50.272;19.026;2023-12-20T13:22:21;54.50;46.31;69.77;;
76338;Laerm;20358;50.272;19.026;2023-12-20T13:25:27;54.48;45.78;68.00;;
76338;Laerm;20358;50.272;19.026;2023-12-20T13:28:35;55.41;46.79;68.11;;
76338;Laerm;20358;50.272;19.026;2023-12-20T13:31:41;52.22;45.46;64.36;;
76338;Laerm;20358;50.272;19.026;2023-12-20T13:34:48;54.90;47.64;70.81;;
76338;Laerm;20358;50.272;19.026;2023-12-20T13:37:57;54.30;47.18;65.52;;
76338;Laerm;20358;50.272;19.026;2023-12-20T13:41:05;53.82;45.72;63.27;;
76338;Laerm;20358;50.272;19.026;2023-12-20T13:44:11;56.30;46.38;68.57;;
76338;Laerm;20358;50.272;19.026;2023-12-20T13:47:18;54.52;46.03;66.77;;
76338;Laerm;20358;50.272;19.026;2023-12-20T13:50:26;56.48;45.70;67.87;;
76338;Laerm;20358;50.272;19.026;2023-12-20T13:53:36;53.30;45.55;62.88;;
76338;Laerm;20358;50.272;19.026;2023-12-20T13:56:42;53.66;43.57;72.09;;
76338;Laerm;20358;50.272;19.026;2023-12-20T14:00:10;54.70;44.54;67.59;;
76338;Laerm;20358;50.272;19.026;2023-12-20T14:03:17;55.80;45.86;67.62;;
76338;Laerm;20358;50.272;19.026;2023-12-20T14:06:24;55.05;46.26;66.71;;
76338;Laerm;20358;50.272;19.026;2023-12-20T14:09:33;53.88;45.00;66.06;;
76338;Laerm;20358;50.272;19.026;2023-12-20T14:12:42;53.84;45.75;63.73;;
76338;Laerm;20358;50.272;19.026;2023-12-20T14:15:49;54.02;44.87;68.15;;
76338;Laerm;20358;50.272;19.026;2023-12-20T14:18:57;54.60;46.75;65.65;;
76338;Laerm;20358;50.272;19.026;2023-12-20T14:22:04;55.61;46.13;67.76;;
76338;Laerm;20358;50.272;19.026;2023-12-20T14:25:14;54.59;46.48;64.22;;
76338;Laerm;20358;50.272;19.026;2023-12-20T14:28:20;53.36;45.51;63.80;;
76338;Laerm;20358;50.272;19.026;2023-12-20T14:31:27;55.46;46.51;74.91;;
76338;Laerm;20358;50.272;19.026;2023-12-20T14:34:33;56.70;48.86;70.60;;
76338;Laerm;20358;50.272;19.026;2023-12-20T14:37:41;54.79;46.69;65.99;;
76338;Laerm;20358;50.272;19.026;2023-12-20T14:40:50;57.90;46.61;79.13;;
76338;Laerm;20358;50.272;19.026;2023-12-20T14:43:57;53.35;44.56;61.61;;
76338;Laerm;20358;50.272;19.026;2023-12-20T14:47:05;55.95;44.41;66.16;;
76338;Laerm;20358;50.272;19.026;2023-12-20T14:50:13;55.12;45.72;66.04;;
76338;Laerm;20358;50.272;19.026;2023-12-20T14:53:22;55.26;47.39;64.11;;
76338;Laerm;20358;50.272;19.026;2023-12-20T14:56:31;56.87;48.68;68.31;;
76338;Laerm;20358;50.272;19.026;2023-12-20T14:59:38;54.91;46.20;65.37;;
76338;Laerm;20358;50.272;19.026;2023-12-20T15:02:46;53.70;45.02;62.96;;
76338;Laerm;20358;50.272;19.026;2023-12-20T15:05:52;53.24;45.02;61.33;;
76338;Laerm;20358;50.272;19.026;2023-12-20T15:09:04;54.63;46.07;62.38;;
76338;Laerm;20358;50.272;19.026;2023-12-20T15:12:13;53.58;46.23;63.99;;
76338;Laerm;20358;50.272;19.026;2023-12-20T15:15:20;54.66;46.71;62.87;;
76338;Laerm;20358;50.272;19.026;2023-12-20T15:18:26;53.95;46.46;62.40;;
76338;Laerm;20358;50.272;19.026;2023-12-20T15:21:34;55.11;45.51;71.79;;
76338;Laerm;20358;50.272;19.026;2023-12-20T15:24:49;54.35;48.59;64.18;;
76338;Laerm;20358;50.272;19.026;2023-12-20T15:28:00;55.33;45.31;71.40;;
76338;Laerm;20358;50.272;19.026;2023-12-20T15:31:07;54.81;46.94;67.82;;
76338;Laerm;20358;50.272;19.026;2023-12-20T15:34:15;55.86;48.30;72.17;;
76338;Laerm;20358;50.272;19.026;2023-12-20T15:37:21;54.40;46.05;66.84;;
76338;Laerm;20358;50.272;19.026;2023-12-20T15:40:30;56.84;48.12;74.48;;
76338;Laerm;20358;50.272;19.026;2023-12-20T15:43:38;54.96;46.88;72.48;;
76338;Laerm;20358;50.272;19.026;2023-12-20T15:46:45;53.82;46.85;68.64;;
76338;Laerm;20358;50.272;19.026;2023-12-20T15:49:51;55.24;47.10;68.59;;
76338;Laerm;20358;50.272;19.026;2023-12-20T15:52:58;54.59;46.85;67.48;;
76338;Laerm;20358;50.272;19.026;2023-12-20T15:56:06;54.40;46.24;68.15;;
76338;Laerm;20358;50.272;19.026;2023-12-20T15:59:15;55.00;47.52;75.35;;
76338;Laerm;20358;50.272;19.026;2023-12-20T16:02:21;56.34;48.32;69.57;;
76338;Laerm;20358;50.272;19.026;2023-12-20T16:05:28;53.41;45.01;68.59;;
76338;Laerm;20358;50.272;19.026;2023-12-20T16:08:35;55.05;47.61;74.75;;
76338;Laerm;20358;50.272;19.026;2023-12-20T16:11:42;54.83;48.14;76.32;;
76338;Laerm;20358;50.272;19.026;2023-12-20T16:14:51;54.24;46.81;62.27;;
76338;Laerm;20358;50.272;19.026;2023-12-20T16:17:57;54.34;45.70;74.35;;
76338;Laerm;20358;50.272;19.026;2023-12-20T16:21:05;55.06;45.32;74.54;;
76338;Laerm;20358;50.272;19.026;2023-12-20T16:24:12;53.37;46.50;63.57;;
76338;Laerm;20358;50.272;19.026;2023-12-20T16:27:18;54.33;46.71;66.33;;
76338;Laerm;20358;50.272;19.026;2023-12-20T16:30:27;53.25;45.24;69.20;;
76338;Laerm;20358;50.272;19.026;2023-12-20T16:33:33;54.49;45.33;68.39;;
76338;Laerm;20358;50.272;19.026;2023-12-20T16:36:52;53.72;45.80;63.38;;
76338;Laerm;20358;50.272;19.026;2023-12-20T16:40:00;53.40;46.23;68.64;;
76338;Laerm;20358;50.272;19.026;2023-12-20T16:43:08;53.76;46.00;60.62;;
76338;Laerm;20358;50.272;19.026;2023-12-20T16:46:17;54.23;45.43;68.88;;
76338;Laerm;20358;50.272;19.026;2023-12-20T16:49:24;57.15;45.68;76.36;;
76338;Laerm;20358;50.272;19.026;2023-12-20T16:52:30;54.50;46.21;70.40;;
76338;Laerm;20358;50.272;19.026;2023-12-20T16:55:38;53.82;45.92;74.20;;
76338;Laerm;20358;50.272;19.026;2023-12-20T16:58:46;53.66;46.04;67.09;;
76338;Laerm;20358;50.272;19.026;2023-12-20T17:01:56;52.57;44.80;65.03;;
76338;Laerm;20358;50.272;19.026;2023-12-20T17:05:05;54.07;44.34;71.47;;
76338;Laerm;20358;50.272;19.026;2023-12-20T17:08:13;54.47;45.60;68.62;;
76338;Laerm;20358;50.272;19.026;2023-12-20T17:11:18;53.62;44.03;70.12;;
76338;Laerm;20358;50.272;19.026;2023-12-20T17:14:25;53.43;47.91;61.01;;
76338;Laerm;20358;50.272;19.026;2023-12-20T17:17:33;55.01;46.36;69.71;;